sensor_id;sensor_type;location;lat;lon;timestamp;P1;durP1;ratioP1;P2;durP2;ratioP2
55007;SDS011;40902;45.116;21.296;2023-04-07T00:01:01;22.42;;;18.02;;
55007;SDS011;40902;45.116;21.296;2023-04-07T00:03:27;23.77;;;18.13;;
55007;SDS011;40902;45.116;21.296;2023-04-07T00:05:53;25.17;;;18.77;;
55007;SDS011;40902;45.116;21.296;2023-04-07T00:08:18;22.55;;;17.60;;
55007;SDS011;40902;45.116;21.296;2023-04-07T00:10:44;24.92;;;19.02;;
55007;SDS011;40902;45.116;21.296;2023-04-07T00:13:10;25.13;;;20.23;;
55007;SDS011;40902;45.116;21.296;2023-04-07T00:15:36;25.83;;;20.42;;
55007;SDS011;40902;45.116;21.296;2023-04-07T00:18:02;28.92;;;20.77;;
55007;SDS011;40902;45.116;21.296;2023-04-07T00:20:28;26.98;;;20.73;;
55007;SDS011;40902;45.116;21.296;2023-04-07T00:22:53;26.75;;;20.98;;
55007;SDS011;40902;45.116;21.296;2023-04-07T00:25:19;26.38;;;19.50;;
55007;SDS011;40902;45.116;21.296;2023-04-07T00:27:45;23.10;;;18.80;;
55007;SDS011;40902;45.116;21.296;2023-04-07T00:30:11;24.88;;;19.50;;
55007;SDS011;40902;45.116;21.296;2023-04-07T00:32:36;25.60;;;20.13;;
55007;SDS011;40902;45.116;21.296;2023-04-07T00:35:02;27.42;;;21.35;;
55007;SDS011;40902;45.116;21.296;2023-04-07T00:37:28;26.83;;;20.83;;
55007;SDS011;40902;45.116;21.296;2023-04-07T00:39:54;27.65;;;21.05;;
55007;SDS011;40902;45.116;21.296;2023-04-07T00:42:21;30.15;;;21.63;;
55007;SDS011;40902;45.116;21.296;2023-04-07T00:44:46;30.63;;;22.85;;
55007;SDS011;40902;45.116;21.296;2023-04-07T00:47:12;31.30;;;23.17;;
55007;SDS011;40902;45.116;21.296;2023-04-07T00:49:39;33.35;;;25.42;;
55007;SDS011;40902;45.116;21.296;2023-04-07T00:52:05;38.95;;;25.60;;
55007;SDS011;40902;45.116;21.296;2023-04-07T00:54:32;34.55;;;24.25;;
55007;SDS011;40902;45.116;21.296;2023-04-07T00:56:57;34.72;;;25.15;;
55007;SDS011;40902;45.116;21.296;2023-04-07T00:59:23;34.15;;;25.13;;
55007;SDS011;40902;45.116;21.296;2023-04-07T01:01:54;30.75;;;23.42;;
55007;SDS011;40902;45.116;21.296;2023-04-07T01:04:36;30.58;;;24.08;;
55007;SDS011;40902;45.116;21.296;2023-04-07T01:07:10;32.88;;;25.15;;
55007;SDS011;40902;45.116;21.296;2023-04-07T01:09:47;33.35;;;23.95;;
55007;SDS011;40902;45.116;21.296;2023-04-07T01:15:06;30.95;;;23.20;;
55007;SDS011;40902;45.116;21.296;2023-04-07T01:17:35;32.90;;;23.80;;
55007;SDS011;40902;45.116;21.296;2023-04-07T01:20:06;29.83;;;22.10;;
55007;SDS011;40902;45.116;21.296;2023-04-07T01:22:41;32.75;;;23.85;;
55007;SDS011;40902;45.116;21.296;2023-04-07T01:30:33;30.92;;;23.33;;
55007;SDS011;40902;45.116;21.296;2023-04-07T01:33:02;28.80;;;21.80;;
55007;SDS011;40902;45.116;21.296;2023-04-07T01:35:30;29.63;;;22.17;;
55007;SDS011;40902;45.116;21.296;2023-04-07T01:37:58;29.10;;;21.90;;
55007;SDS011;40902;45.116;21.296;2023-04-07T01:40:25;31.15;;;22.13;;
55007;SDS011;40902;45.116;21.296;2023-04-07T01:42:52;29.70;;;21.65;;
55007;SDS011;40902;45.116;21.296;2023-04-07T01:45:18;31.35;;;23.75;;
55007;SDS011;40902;45.116;21.296;2023-04-07T01:47:45;32.50;;;23.88;;
55007;SDS011;40902;45.116;21.296;2023-04-07T01:50:11;30.45;;;22.65;;
55007;SDS011;40902;45.116;21.296;2023-04-07T01:52:38;33.90;;;22.00;;
55007;SDS011;40902;45.116;21.296;2023-04-07T01:55:05;30.95;;;23.20;;
55007;SDS011;40902;45.116;21.296;2023-04-07T01:57:31;30.80;;;21.75;;
55007;SDS011;40902;45.116;21.296;2023-04-07T01:59:57;30.90;;;22.27;;
55007;SDS011;40902;45.116;21.296;2023-04-07T02:02:23;31.45;;;23.23;;
55007;SDS011;40902;45.116;21.296;2023-04-07T02:04:56;33.40;;;22.45;;
55007;SDS011;40902;45.116;21.296;2023-04-07T02:07:30;27.15;;;20.52;;
55007;SDS011;40902;45.116;21.296;2023-04-07T02:10:05;30.58;;;21.58;;
55007;SDS011;40902;45.116;21.296;2023-04-07T02:12:35;30.05;;;22.05;;
55007;SDS011;40902;45.116;21.296;2023-04-07T02:15:04;32.90;;;22.15;;
55007;SDS011;40902;45.116;21.296;2023-04-07T02:17:33;28.00;;;21.48;;
55007;SDS011;40902;45.116;21.296;2023-04-07T02:20:01;30.40;;;21.92;;
55007;SDS011;40902;45.116;21.296;2023-04-07T02:22:29;29.70;;;22.60;;
55007;SDS011;40902;45.116;21.296;2023-04-07T02:24:55;29.58;;;22.13;;
55007;SDS011;40902;45.116;21.296;2023-04-07T02:27:21;27.40;;;21.10;;
55007;SDS011;40902;45.116;21.296;2023-04-07T02:29:47;28.00;;;21.45;;
55007;SDS011;40902;45.116;21.296;2023-04-07T02:32:12;28.63;;;22.23;;
55007;SDS011;40902;45.116;21.296;2023-04-07T02:34:38;27.48;;;21.88;;
55007;SDS011;40902;45.116;21.296;2023-04-07T02:37:04;29.58;;;22.10;;
55007;SDS011;40902;45.116;21.296;2023-04-07T02:39:30;28.92;;;21.20;;
55007;SDS011;40902;45.116;21.296;2023-04-07T02:41:55;31.55;;;23.50;;
55007;SDS011;40902;45.116;21.296;2023-04-07T02:44:21;31.15;;;22.65;;
55007;SDS011;40902;45.116;21.296;2023-04-07T02:46:47;29.30;;;21.88;;
55007;SDS011;40902;45.116;21.296;2023-04-07T02:49:12;30.70;;;22.38;;
55007;SDS011;40902;45.116;21.296;2023-04-07T02:51:38;29.60;;;21.85;;
55007;SDS011;40902;45.116;21.296;2023-04-07T02:54:04;28.75;;;21.50;;
55007;SDS011;40902;45.116;21.296;2023-04-07T02:56:29;30.63;;;22.38;;
55007;SDS011;40902;45.116;21.296;2023-04-07T02:58:55;30.58;;;22.73;;
55007;SDS011;40902;45.116;21.296;2023-04-07T03:01:21;30.80;;;22.92;;
55007;SDS011;40902;45.116;21.296;2023-04-07T03:03:46;29.25;;;21.95;;
55007;SDS011;40902;45.116;21.296;2023-04-07T03:06:12;30.15;;;22.65;;
55007;SDS011;40902;45.116;21.296;2023-04-07T03:08:38;29.83;;;22.17;;
55007;SDS011;40902;45.116;21.296;2023-04-07T03:11:04;33.90;;;24.13;;
55007;SDS011;40902;45.116;21.296;2023-04-07T03:13:30;29.83;;;23.35;;
55007;SDS011;40902;45.116;21.296;2023-04-07T03:15:56;30.25;;;23.40;;
55007;SDS011;40902;45.116;21.296;2023-04-07T03:18:22;33.38;;;23.30;;
55007;SDS011;40902;45.116;21.296;2023-04-07T03:20:47;31.52;;;24.10;;
55007;SDS011;40902;45.116;21.296;2023-04-07T03:23:13;32.47;;;23.20;;
55007;SDS011;40902;45.116;21.296;2023-04-07T03:25:39;31.92;;;22.92;;
55007;SDS011;40902;45.116;21.296;2023-04-07T03:28:05;31.73;;;24.35;;
55007;SDS011;40902;45.116;21.296;2023-04-07T03:30:31;32.05;;;23.38;;
55007;SDS011;40902;45.116;21.296;2023-04-07T03:32:57;34.65;;;24.25;;
55007;SDS011;40902;45.116;21.296;2023-04-07T03:35:23;30.10;;;24.05;;
55007;SDS011;40902;45.116;21.296;2023-04-07T03:37:48;29.50;;;22.48;;
55007;SDS011;40902;45.116;21.296;2023-04-07T03:40:14;30.70;;;23.27;;
55007;SDS011;40902;45.116;21.296;2023-04-07T03:42:40;33.42;;;24.80;;
55007;SDS011;40902;45.116;21.296;2023-04-07T03:45:06;31.77;;;24.50;;
55007;SDS011;40902;45.116;21.296;2023-04-07T03:47:32;33.78;;;25.23;;
55007;SDS011;40902;45.116;21.296;2023-04-07T03:49:57;33.95;;;23.65;;
55007;SDS011;40902;45.116;21.296;2023-04-07T03:52:23;31.25;;;24.63;;
55007;SDS011;40902;45.116;21.296;2023-04-07T03:54:49;33.25;;;24.77;;
55007;SDS011;40902;45.116;21.296;2023-04-07T03:57:14;31.33;;;24.15;;
55007;SDS011;40902;45.116;21.296;2023-04-07T03:59:40;37.38;;;25.67;;
55007;SDS011;40902;45.116;21.296;2023-04-07T04:02:06;32.08;;;24.60;;
55007;SDS011;40902;45.116;21.296;2023-04-07T04:04:31;31.95;;;24.80;;
55007;SDS011;40902;45.116;21.296;2023-04-07T04:06:57;33.75;;;24.58;;
55007;SDS011;40902;45.116;21.296;2023-04-07T04:09:23;31.23;;;24.05;;
55007;SDS011;40902;45.116;21.296;2023-04-07T04:11:48;33.47;;;24.90;;
55007;SDS011;40902;45.116;21.296;2023-04-07T04:14:15;34.45;;;25.08;;
55007;SDS011;40902;45.116;21.296;2023-04-07T04:16:41;32.80;;;24.55;;
55007;SDS011;40902;45.116;21.296;2023-04-07T04:19:07;35.40;;;25.55;;
55007;SDS011;40902;45.116;21.296;2023-04-07T04:21:32;35.42;;;26.27;;
55007;SDS011;40902;45.116;21.296;2023-04-07T04:23:58;35.13;;;24.90;;
55007;SDS011;40902;45.116;21.296;2023-04-07T04:26:24;34.53;;;25.00;;
55007;SDS011;40902;45.116;21.296;2023-04-07T04:28:50;33.28;;;24.08;;
55007;SDS011;40902;45.116;21.296;2023-04-07T04:31:17;31.27;;;24.23;;
55007;SDS011;40902;45.116;21.296;2023-04-07T04:33:42;32.83;;;24.08;;
55007;SDS011;40902;45.116;21.296;2023-04-07T04:36:08;34.50;;;25.33;;
55007;SDS011;40902;45.116;21.296;2023-04-07T04:38:34;33.00;;;24.35;;
55007;SDS011;40902;45.116;21.296;2023-04-07T04:41:00;32.28;;;24.52;;
55007;SDS011;40902;45.116;21.296;2023-04-07T04:43:25;34.65;;;25.55;;
55007;SDS011;40902;45.116;21.296;2023-04-07T04:45:51;36.05;;;25.77;;
55007;SDS011;40902;45.116;21.296;2023-04-07T04:48:17;32.25;;;24.65;;
55007;SDS011;40902;45.116;21.296;2023-04-07T04:50:43;31.60;;;24.33;;
55007;SDS011;40902;45.116;21.296;2023-04-07T04:53:08;31.40;;;23.80;;
55007;SDS011;40902;45.116;21.296;2023-04-07T04:55:34;32.50;;;23.80;;
55007;SDS011;40902;45.116;21.296;2023-04-07T04:58:00;33.15;;;23.83;;
55007;SDS011;40902;45.116;21.296;2023-04-07T05:00:26;34.53;;;25.05;;
55007;SDS011;40902;45.116;21.296;2023-04-07T05:02:52;33.17;;;24.75;;
55007;SDS011;40902;45.116;21.296;2023-04-07T05:05:18;34.78;;;24.52;;
55007;SDS011;40902;45.116;21.296;2023-04-07T05:07:44;32.53;;;24.27;;
55007;SDS011;40902;45.116;21.296;2023-04-07T05:10:10;30.35;;;23.25;;
55007;SDS011;40902;45.116;21.296;2023-04-07T05:12:35;30.92;;;23.00;;
55007;SDS011;40902;45.116;21.296;2023-04-07T05:15:02;30.42;;;23.40;;
55007;SDS011;40902;45.116;21.296;2023-04-07T05:17:27;30.45;;;22.90;;
55007;SDS011;40902;45.116;21.296;2023-04-07T05:19:53;31.73;;;24.00;;
55007;SDS011;40902;45.116;21.296;2023-04-07T05:22:19;31.02;;;24.30;;
55007;SDS011;40902;45.116;21.296;2023-04-07T05:24:45;31.88;;;23.65;;
55007;SDS011;40902;45.116;21.296;2023-04-07T05:27:11;31.80;;;23.77;;
55007;SDS011;40902;45.116;21.296;2023-04-07T05:29:37;29.75;;;22.52;;
55007;SDS011;40902;45.116;21.296;2023-04-07T05:32:03;31.02;;;22.70;;
55007;SDS011;40902;45.116;21.296;2023-04-07T05:34:29;31.58;;;24.42;;
55007;SDS011;40902;45.116;21.296;2023-04-07T05:36:55;31.67;;;22.35;;
55007;SDS011;40902;45.116;21.296;2023-04-07T05:39:22;33.38;;;24.15;;
55007;SDS011;40902;45.116;21.296;2023-04-07T05:41:50;37.63;;;26.88;;
55007;SDS011;40902;45.116;21.296;2023-04-07T05:44:16;34.65;;;26.65;;
55007;SDS011;40902;45.116;21.296;2023-04-07T05:46:41;35.70;;;27.58;;
55007;SDS011;40902;45.116;21.296;2023-04-07T05:49:07;36.72;;;27.27;;
55007;SDS011;40902;45.116;21.296;2023-04-07T05:51:33;32.88;;;25.70;;
55007;SDS011;40902;45.116;21.296;2023-04-07T05:54:00;36.25;;;26.10;;
55007;SDS011;40902;45.116;21.296;2023-04-07T05:56:29;32.50;;;25.15;;
55007;SDS011;40902;45.116;21.296;2023-04-07T05:58:55;36.42;;;26.75;;
55007;SDS011;40902;45.116;21.296;2023-04-07T06:01:21;35.17;;;25.08;;
55007;SDS011;40902;45.116;21.296;2023-04-07T06:03:46;32.60;;;24.20;;
55007;SDS011;40902;45.116;21.296;2023-04-07T06:06:13;33.65;;;24.40;;
55007;SDS011;40902;45.116;21.296;2023-04-07T06:08:39;34.25;;;24.25;;
55007;SDS011;40902;45.116;21.296;2023-04-07T06:11:05;33.25;;;24.23;;
55007;SDS011;40902;45.116;21.296;2023-04-07T06:13:30;32.53;;;24.50;;
55007;SDS011;40902;45.116;21.296;2023-04-07T06:15:56;32.72;;;24.63;;
55007;SDS011;40902;45.116;21.296;2023-04-07T06:18:22;33.60;;;24.15;;
55007;SDS011;40902;45.116;21.296;2023-04-07T06:20:47;33.28;;;24.48;;
55007;SDS011;40902;45.116;21.296;2023-04-07T06:23:13;31.45;;;22.50;;
55007;SDS011;40902;45.116;21.296;2023-04-07T06:25:39;36.53;;;25.30;;
55007;SDS011;40902;45.116;21.296;2023-04-07T06:28:05;32.90;;;24.15;;
55007;SDS011;40902;45.116;21.296;2023-04-07T06:30:31;28.63;;;22.50;;
55007;SDS011;40902;45.116;21.296;2023-04-07T06:32:56;29.45;;;22.55;;
55007;SDS011;40902;45.116;21.296;2023-04-07T06:35:22;33.70;;;23.65;;
55007;SDS011;40902;45.116;21.296;2023-04-07T06:37:50;30.13;;;22.58;;
55007;SDS011;40902;45.116;21.296;2023-04-07T06:40:16;33.05;;;24.23;;
55007;SDS011;40902;45.116;21.296;2023-04-07T06:42:42;31.52;;;23.00;;
55007;SDS011;40902;45.116;21.296;2023-04-07T06:45:08;33.92;;;23.65;;
55007;SDS011;40902;45.116;21.296;2023-04-07T06:47:34;30.45;;;23.67;;
55007;SDS011;40902;45.116;21.296;2023-04-07T06:50:00;30.95;;;23.95;;
55007;SDS011;40902;45.116;21.296;2023-04-07T06:52:25;35.78;;;27.05;;
55007;SDS011;40902;45.116;21.296;2023-04-07T06:54:52;34.80;;;25.67;;
55007;SDS011;40902;45.116;21.296;2023-04-07T06:57:18;34.40;;;25.30;;
55007;SDS011;40902;45.116;21.296;2023-04-07T06:59:43;36.17;;;27.05;;
55007;SDS011;40902;45.116;21.296;2023-04-07T07:02:09;36.97;;;26.65;;
55007;SDS011;40902;45.116;21.296;2023-04-07T07:04:35;33.13;;;25.48;;
55007;SDS011;40902;45.116;21.296;2023-04-07T07:07:00;35.35;;;25.23;;
55007;SDS011;40902;45.116;21.296;2023-04-07T07:09:27;34.90;;;26.23;;
55007;SDS011;40902;45.116;21.296;2023-04-07T07:11:53;37.05;;;27.77;;
55007;SDS011;40902;45.116;21.296;2023-04-07T07:14:18;37.42;;;27.33;;
55007;SDS011;40902;45.116;21.296;2023-04-07T07:16:44;37.28;;;26.92;;
55007;SDS011;40902;45.116;21.296;2023-04-07T07:19:10;34.28;;;25.20;;
55007;SDS011;40902;45.116;21.296;2023-04-07T07:21:35;33.47;;;24.73;;
55007;SDS011;40902;45.116;21.296;2023-04-07T07:24:01;35.65;;;24.80;;
55007;SDS011;40902;45.116;21.296;2023-04-07T07:26:27;34.60;;;26.60;;
55007;SDS011;40902;45.116;21.296;2023-04-07T07:28:53;36.03;;;25.65;;
55007;SDS011;40902;45.116;21.296;2023-04-07T07:31:18;39.10;;;26.65;;
55007;SDS011;40902;45.116;21.296;2023-04-07T07:33:44;34.30;;;24.90;;
55007;SDS011;40902;45.116;21.296;2023-04-07T07:36:12;33.15;;;25.85;;
55007;SDS011;40902;45.116;21.296;2023-04-07T07:38:38;33.22;;;24.63;;
55007;SDS011;40902;45.116;21.296;2023-04-07T07:41:05;32.47;;;24.80;;
55007;SDS011;40902;45.116;21.296;2023-04-07T07:43:31;33.53;;;24.98;;
55007;SDS011;40902;45.116;21.296;2023-04-07T07:45:57;34.42;;;23.88;;
55007;SDS011;40902;45.116;21.296;2023-04-07T07:48:22;31.23;;;23.65;;
55007;SDS011;40902;45.116;21.296;2023-04-07T07:50:48;43.28;;;29.15;;
55007;SDS011;40902;45.116;21.296;2023-04-07T07:53:15;39.70;;;25.92;;
55007;SDS011;40902;45.116;21.296;2023-04-07T07:55:41;27.48;;;21.02;;
55007;SDS011;40902;45.116;21.296;2023-04-07T07:58:07;29.77;;;22.15;;
55007;SDS011;40902;45.116;21.296;2023-04-07T08:00:32;29.75;;;22.58;;
55007;SDS011;40902;45.116;21.296;2023-04-07T08:02:58;27.30;;;20.77;;
55007;SDS011;40902;45.116;21.296;2023-04-07T08:05:24;31.20;;;23.48;;
55007;SDS011;40902;45.116;21.296;2023-04-07T08:07:51;31.90;;;23.58;;
55007;SDS011;40902;45.116;21.296;2023-04-07T08:10:17;31.73;;;24.17;;
55007;SDS011;40902;45.116;21.296;2023-04-07T08:12:44;27.20;;;21.63;;
55007;SDS011;40902;45.116;21.296;2023-04-07T08:15:10;25.70;;;19.67;;
55007;SDS011;40902;45.116;21.296;2023-04-07T08:17:35;25.58;;;19.77;;
55007;SDS011;40902;45.116;21.296;2023-04-07T08:20:01;26.75;;;19.92;;
55007;SDS011;40902;45.116;21.296;2023-04-07T08:22:28;26.58;;;20.02;;
55007;SDS011;40902;45.116;21.296;2023-04-07T08:24:54;24.00;;;19.08;;
55007;SDS011;40902;45.116;21.296;2023-04-07T08:27:20;25.13;;;20.10;;
55007;SDS011;40902;45.116;21.296;2023-04-07T08:29:50;23.73;;;18.15;;
55007;SDS011;40902;45.116;21.296;2023-04-07T08:32:37;29.75;;;21.73;;
55007;SDS011;40902;45.116;21.296;2023-04-07T08:35:05;27.42;;;21.33;;
55007;SDS011;40902;45.116;21.296;2023-04-07T08:37:31;29.88;;;21.95;;
55007;SDS011;40902;45.116;21.296;2023-04-07T08:39:58;26.67;;;19.92;;
55007;SDS011;40902;45.116;21.296;2023-04-07T08:42:26;28.73;;;20.35;;
55007;SDS011;40902;45.116;21.296;2023-04-07T08:44:55;29.33;;;21.85;;
55007;SDS011;40902;45.116;21.296;2023-04-07T08:47:22;25.10;;;19.88;;
55007;SDS011;40902;45.116;21.296;2023-04-07T08:49:51;24.60;;;17.88;;
55007;SDS011;40902;45.116;21.296;2023-04-07T08:52:21;20.00;;;15.98;;
55007;SDS011;40902;45.116;21.296;2023-04-07T08:54:49;21.38;;;16.67;;
55007;SDS011;40902;45.116;21.296;2023-04-07T08:57:17;54.90;;;34.20;;
55007;SDS011;40902;45.116;21.296;2023-04-07T08:59:43;23.85;;;18.70;;
55007;SDS011;40902;45.116;21.296;2023-04-07T09:02:11;23.48;;;18.35;;
55007;SDS011;40902;45.116;21.296;2023-04-07T09:04:38;24.13;;;18.95;;
55007;SDS011;40902;45.116;21.296;2023-04-07T09:07:03;22.30;;;17.70;;
55007;SDS011;40902;45.116;21.296;2023-04-07T09:09:29;24.15;;;17.55;;
55007;SDS011;40902;45.116;21.296;2023-04-07T09:11:55;21.48;;;16.33;;
55007;SDS011;40902;45.116;21.296;2023-04-07T09:14:21;21.85;;;16.80;;
55007;SDS011;40902;45.116;21.296;2023-04-07T09:16:46;22.10;;;16.92;;
55007;SDS011;40902;45.116;21.296;2023-04-07T09:19:12;19.92;;;15.65;;
55007;SDS011;40902;45.116;21.296;2023-04-07T09:24:20;19.45;;;14.50;;
55007;SDS011;40902;45.116;21.296;2023-04-07T09:26:47;18.90;;;14.35;;
55007;SDS011;40902;45.116;21.296;2023-04-07T09:29:17;22.85;;;16.58;;
55007;SDS011;40902;45.116;21.296;2023-04-07T09:31:48;19.00;;;14.75;;
55007;SDS011;40902;45.116;21.296;2023-04-07T09:37:03;19.52;;;14.50;;
55007;SDS011;40902;45.116;21.296;2023-04-07T09:39:30;16.52;;;12.70;;
55007;SDS011;40902;45.116;21.296;2023-04-07T09:41:56;20.73;;;14.95;;
55007;SDS011;40902;45.116;21.296;2023-04-07T09:44:23;22.20;;;17.48;;
55007;SDS011;40902;45.116;21.296;2023-04-07T09:46:53;19.17;;;15.05;;
55007;SDS011;40902;45.116;21.296;2023-04-07T09:49:23;22.27;;;16.85;;
55007;SDS011;40902;45.116;21.296;2023-04-07T09:51:56;22.38;;;18.02;;
55007;SDS011;40902;45.116;21.296;2023-04-07T09:54:38;22.15;;;17.70;;
55007;SDS011;40902;45.116;21.296;2023-04-07T09:57:11;19.83;;;15.30;;
55007;SDS011;40902;45.116;21.296;2023-04-07T09:59:39;20.85;;;15.55;;
55007;SDS011;40902;45.116;21.296;2023-04-07T10:02:08;22.27;;;16.40;;
55007;SDS011;40902;45.116;21.296;2023-04-07T10:04:35;17.05;;;13.75;;
55007;SDS011;40902;45.116;21.296;2023-04-07T10:07:01;19.33;;;15.48;;
55007;SDS011;40902;45.116;21.296;2023-04-07T10:09:28;20.00;;;15.20;;
55007;SDS011;40902;45.116;21.296;2023-04-07T10:11:55;20.40;;;15.40;;
55007;SDS011;40902;45.116;21.296;2023-04-07T10:14:34;19.55;;;14.90;;
55007;SDS011;40902;45.116;21.296;2023-04-07T10:17:18;20.17;;;14.88;;
55007;SDS011;40902;45.116;21.296;2023-04-07T10:19:46;19.50;;;14.35;;
55007;SDS011;40902;45.116;21.296;2023-04-07T10:22:14;16.80;;;13.75;;
55007;SDS011;40902;45.116;21.296;2023-04-07T10:30:16;24.38;;;18.15;;
55007;SDS011;40902;45.116;21.296;2023-04-07T10:32:46;24.88;;;18.92;;
55007;SDS011;40902;45.116;21.296;2023-04-07T10:35:13;34.97;;;23.88;;
55007;SDS011;40902;45.116;21.296;2023-04-07T10:37:39;23.60;;;17.17;;
55007;SDS011;40902;45.116;21.296;2023-04-07T10:42:43;22.00;;;16.55;;
55007;SDS011;40902;45.116;21.296;2023-04-07T10:45:11;24.10;;;18.20;;
55007;SDS011;40902;45.116;21.296;2023-04-07T10:50:27;28.27;;;19.75;;
55007;SDS011;40902;45.116;21.296;2023-04-07T10:53:09;27.23;;;19.88;;
55007;SDS011;40902;45.116;21.296;2023-04-07T10:55:42;27.70;;;19.73;;
55007;SDS011;40902;45.116;21.296;2023-04-07T11:03:57;20.33;;;14.95;;
55007;SDS011;40902;45.116;21.296;2023-04-07T11:06:22;35.38;;;28.90;;
55007;SDS011;40902;45.116;21.296;2023-04-07T11:08:48;31.65;;;19.42;;
55007;SDS011;40902;45.116;21.296;2023-04-07T11:11:19;28.90;;;17.83;;
55007;SDS011;40902;45.116;21.296;2023-04-07T11:14:04;18.45;;;13.45;;
55007;SDS011;40902;45.116;21.296;2023-04-07T11:16:35;15.50;;;12.18;;
55007;SDS011;40902;45.116;21.296;2023-04-07T11:19:02;22.63;;;18.08;;
55007;SDS011;40902;45.116;21.296;2023-04-07T11:21:27;18.33;;;13.48;;
55007;SDS011;40902;45.116;21.296;2023-04-07T11:23:54;18.65;;;13.60;;
55007;SDS011;40902;45.116;21.296;2023-04-07T11:26:20;16.73;;;12.70;;
55007;SDS011;40902;45.116;21.296;2023-04-07T11:31:22;15.90;;;12.67;;
55007;SDS011;40902;45.116;21.296;2023-04-07T11:33:56;16.52;;;13.25;;
55007;SDS011;40902;45.116;21.296;2023-04-07T11:38:58;30.52;;;19.42;;
55007;SDS011;40902;45.116;21.296;2023-04-07T11:41:25;30.73;;;18.88;;
55007;SDS011;40902;45.116;21.296;2023-04-07T11:44:07;22.88;;;16.00;;
55007;SDS011;40902;45.116;21.296;2023-04-07T11:46:35;16.90;;;12.77;;
55007;SDS011;40902;45.116;21.296;2023-04-07T11:49:11;25.63;;;15.90;;
55007;SDS011;40902;45.116;21.296;2023-04-07T11:51:38;16.45;;;12.43;;
55007;SDS011;40902;45.116;21.296;2023-04-07T11:54:05;20.42;;;14.45;;
55007;SDS011;40902;45.116;21.296;2023-04-07T11:56:40;14.27;;;11.25;;
55007;SDS011;40902;45.116;21.296;2023-04-07T11:59:20;19.75;;;12.73;;
55007;SDS011;40902;45.116;21.296;2023-04-07T12:01:49;20.15;;;14.20;;
55007;SDS011;40902;45.116;21.296;2023-04-07T12:04:16;19.38;;;13.60;;
55007;SDS011;40902;45.116;21.296;2023-04-07T12:06:44;25.02;;;17.80;;
55007;SDS011;40902;45.116;21.296;2023-04-07T12:09:29;25.90;;;16.70;;
55007;SDS011;40902;45.116;21.296;2023-04-07T12:11:58;19.33;;;13.40;;
55007;SDS011;40902;45.116;21.296;2023-04-07T12:14:25;20.67;;;15.30;;
55007;SDS011;40902;45.116;21.296;2023-04-07T12:16:51;18.25;;;13.80;;
55007;SDS011;40902;45.116;21.296;2023-04-07T12:19:20;20.67;;;15.80;;
55007;SDS011;40902;45.116;21.296;2023-04-07T12:21:47;19.63;;;14.57;;
55007;SDS011;40902;45.116;21.296;2023-04-07T12:24:13;20.40;;;15.77;;
55007;SDS011;40902;45.116;21.296;2023-04-07T12:26:39;20.40;;;15.70;;
55007;SDS011;40902;45.116;21.296;2023-04-07T12:29:04;25.60;;;16.90;;
55007;SDS011;40902;45.116;21.296;2023-04-07T12:31:31;22.63;;;16.27;;
55007;SDS011;40902;45.116;21.296;2023-04-07T12:33:57;24.00;;;17.10;;
55007;SDS011;40902;45.116;21.296;2023-04-07T12:36:23;20.70;;;16.40;;
55007;SDS011;40902;45.116;21.296;2023-04-07T12:38:53;18.40;;;13.88;;
55007;SDS011;40902;45.116;21.296;2023-04-07T12:41:23;17.65;;;13.65;;
55007;SDS011;40902;45.116;21.296;2023-04-07T12:43:49;19.08;;;14.68;;
55007;SDS011;40902;45.116;21.296;2023-04-07T12:46:15;19.73;;;15.07;;
55007;SDS011;40902;45.116;21.296;2023-04-07T12:48:41;18.00;;;13.18;;
55007;SDS011;40902;45.116;21.296;2023-04-07T12:51:07;19.25;;;15.00;;
55007;SDS011;40902;45.116;21.296;2023-04-07T12:53:33;18.33;;;13.18;;
55007;SDS011;40902;45.116;21.296;2023-04-07T12:55:59;18.17;;;13.50;;
55007;SDS011;40902;45.116;21.296;2023-04-07T12:58:25;21.23;;;16.20;;
55007;SDS011;40902;45.116;21.296;2023-04-07T13:00:51;25.95;;;19.05;;
55007;SDS011;40902;45.116;21.296;2023-04-07T13:03:17;26.08;;;18.70;;
55007;SDS011;40902;45.116;21.296;2023-04-07T13:05:43;29.38;;;20.50;;
55007;SDS011;40902;45.116;21.296;2023-04-07T13:08:09;22.90;;;17.25;;
55007;SDS011;40902;45.116;21.296;2023-04-07T13:10:34;25.13;;;17.90;;
55007;SDS011;40902;45.116;21.296;2023-04-07T13:13:00;19.52;;;15.15;;
55007;SDS011;40902;45.116;21.296;2023-04-07T13:15:26;26.13;;;18.38;;
55007;SDS011;40902;45.116;21.296;2023-04-07T13:17:53;20.27;;;15.35;;
55007;SDS011;40902;45.116;21.296;2023-04-07T13:20:19;20.08;;;15.77;;
55007;SDS011;40902;45.116;21.296;2023-04-07T13:22:45;24.40;;;17.40;;
55007;SDS011;40902;45.116;21.296;2023-04-07T13:25:11;24.73;;;17.95;;
55007;SDS011;40902;45.116;21.296;2023-04-07T13:27:37;29.50;;;19.83;;
55007;SDS011;40902;45.116;21.296;2023-04-07T13:30:03;26.10;;;18.05;;
55007;SDS011;40902;45.116;21.296;2023-04-07T13:32:30;19.88;;;15.63;;
55007;SDS011;40902;45.116;21.296;2023-04-07T13:34:55;22.00;;;17.00;;
55007;SDS011;40902;45.116;21.296;2023-04-07T13:37:22;21.02;;;17.02;;
55007;SDS011;40902;45.116;21.296;2023-04-07T13:39:47;23.30;;;17.40;;
55007;SDS011;40902;45.116;21.296;2023-04-07T13:42:13;25.05;;;17.83;;
55007;SDS011;40902;45.116;21.296;2023-04-07T13:44:43;27.02;;;19.00;;
55007;SDS011;40902;45.116;21.296;2023-04-07T13:47:14;22.08;;;17.20;;
55007;SDS011;40902;45.116;21.296;2023-04-07T13:49:44;24.20;;;17.27;;
55007;SDS011;40902;45.116;21.296;2023-04-07T13:52:13;25.13;;;18.50;;
55007;SDS011;40902;45.116;21.296;2023-04-07T13:54:39;27.45;;;18.85;;
55007;SDS011;40902;45.116;21.296;2023-04-07T13:57:05;28.67;;;19.70;;
55007;SDS011;40902;45.116;21.296;2023-04-07T13:59:31;23.55;;;17.08;;
55007;SDS011;40902;45.116;21.296;2023-04-07T14:01:56;33.47;;;22.05;;
55007;SDS011;40902;45.116;21.296;2023-04-07T14:04:22;37.53;;;26.23;;
55007;SDS011;40902;45.116;21.296;2023-04-07T14:06:48;26.33;;;18.35;;
55007;SDS011;40902;45.116;21.296;2023-04-07T14:09:14;24.60;;;18.40;;
55007;SDS011;40902;45.116;21.296;2023-04-07T14:11:39;24.65;;;18.23;;
55007;SDS011;40902;45.116;21.296;2023-04-07T14:14:05;32.00;;;22.33;;
55007;SDS011;40902;45.116;21.296;2023-04-07T14:16:31;28.05;;;19.95;;
55007;SDS011;40902;45.116;21.296;2023-04-07T14:18:57;26.85;;;19.02;;
55007;SDS011;40902;45.116;21.296;2023-04-07T14:21:23;25.52;;;17.00;;
55007;SDS011;40902;45.116;21.296;2023-04-07T14:23:49;25.42;;;18.40;;
55007;SDS011;40902;45.116;21.296;2023-04-07T14:26:15;132.70;;;65.95;;
55007;SDS011;40902;45.116;21.296;2023-04-07T14:28:41;37.13;;;23.95;;
55007;SDS011;40902;45.116;21.296;2023-04-07T14:31:10;23.08;;;16.65;;
55007;SDS011;40902;45.116;21.296;2023-04-07T14:33:37;22.60;;;16.17;;
55007;SDS011;40902;45.116;21.296;2023-04-07T14:36:02;23.95;;;17.00;;
55007;SDS011;40902;45.116;21.296;2023-04-07T14:38:28;29.05;;;20.83;;
55007;SDS011;40902;45.116;21.296;2023-04-07T14:40:54;28.00;;;19.25;;
55007;SDS011;40902;45.116;21.296;2023-04-07T14:43:20;21.63;;;15.52;;